sensor_id;sensor_type;location;lat;lon;timestamp;temperature;humidity
37204;DHT22;23098;48.054;10.636;2023-04-03T00:00:30;1.90;99.90
37204;DHT22;23098;48.054;10.636;2023-04-03T00:02:55;1.90;99.90
37204;DHT22;23098;48.054;10.636;2023-04-03T00:05:21;1.90;99.90
37204;DHT22;23098;48.054;10.636;2023-04-03T00:07:46;1.90;99.90
37204;DHT22;23098;48.054;10.636;2023-04-03T00:10:12;1.90;99.90
37204;DHT22;23098;48.054;10.636;2023-04-03T00:12:39;1.90;99.90
37204;DHT22;23098;48.054;10.636;2023-04-03T00:15:05;2.00;99.90
37204;DHT22;23098;48.054;10.636;2023-04-03T00:17:30;2.00;99.90
37204;DHT22;23098;48.054;10.636;2023-04-03T00:19:57;2.00;99.90
37204;DHT22;23098;48.054;10.636;2023-04-03T00:22:23;2.00;99.90
37204;DHT22;23098;48.054;10.636;2023-04-03T00:24:49;2.00;99.90
37204;DHT22;23098;48.054;10.636;2023-04-03T00:27:14;2.00;99.90
37204;DHT22;23098;48.054;10.636;2023-04-03T00:29:41;1.90;99.90
37204;DHT22;23098;48.054;10.636;2023-04-03T00:32:06;1.90;99.90
37204;DHT22;23098;48.054;10.636;2023-04-03T00:34:32;1.90;99.90
37204;DHT22;23098;48.054;10.636;2023-04-03T00:36:57;1.90;99.90
37204;DHT22;23098;48.054;10.636;2023-04-03T00:39:23;1.90;99.90
37204;DHT22;23098;48.054;10.636;2023-04-03T00:41:48;2.00;99.90
37204;DHT22;23098;48.054;10.636;2023-04-03T00:44:22;1.90;99.90
37204;DHT22;23098;48.054;10.636;2023-04-03T00:46:48;1.80;99.90
37204;DHT22;23098;48.054;10.636;2023-04-03T00:49:13;1.70;99.90
37204;DHT22;23098;48.054;10.636;2023-04-03T00:51:39;1.60;99.90
37204;DHT22;23098;48.054;10.636;2023-04-03T00:54:06;1.50;99.90
37204;DHT22;23098;48.054;10.636;2023-04-03T00:56:33;1.40;99.90
37204;DHT22;23098;48.054;10.636;2023-04-03T01:01:56;1.30;99.90
37204;DHT22;23098;48.054;10.636;2023-04-03T01:07:01;1.40;99.90
37204;DHT22;23098;48.054;10.636;2023-04-03T01:09:28;1.40;99.90
37204;DHT22;23098;48.054;10.636;2023-04-03T01:11:54;1.40;
37204;DHT22;23098;48.054;10.636;2023-04-03T01:14:32;1.50;99.90
37204;DHT22;23098;48.054;10.636;2023-04-03T01:16:59;1.50;99.90
37204;DHT22;23098;48.054;10.636;2023-04-03T01:19:24;1.60;99.90
37204;DHT22;23098;48.054;10.636;2023-04-03T01:22:14;1.60;99.90
37204;DHT22;23098;48.054;10.636;2023-04-03T01:24:42;1.70;99.90
37204;DHT22;23098;48.054;10.636;2023-04-03T01:27:09;1.60;99.90
37204;DHT22;23098;48.054;10.636;2023-04-03T01:29:35;1.70;99.90
37204;DHT22;23098;48.054;10.636;2023-04-03T01:32:02;1.70;99.90
37204;DHT22;23098;48.054;10.636;2023-04-03T01:34:29;1.60;99.90
37204;DHT22;23098;48.054;10.636;2023-04-03T01:36:55;1.60;99.90
37204;DHT22;23098;48.054;10.636;2023-04-03T01:39:21;1.70;99.90
37204;DHT22;23098;48.054;10.636;2023-04-03T01:41:47;1.70;99.90
37204;DHT22;23098;48.054;10.636;2023-04-03T01:44:12;1.60;99.90
37204;DHT22;23098;48.054;10.636;2023-04-03T01:46:38;1.80;99.90
37204;DHT22;23098;48.054;10.636;2023-04-03T01:49:04;1.70;99.90
37204;DHT22;23098;48.054;10.636;2023-04-03T01:51:30;1.70;99.90
37204;DHT22;23098;48.054;10.636;2023-04-03T01:53:56;1.70;99.90
37204;DHT22;23098;48.054;10.636;2023-04-03T01:56:22;1.70;99.90
37204;DHT22;23098;48.054;10.636;2023-04-03T01:58:47;1.70;99.90
37204;DHT22;23098;48.054;10.636;2023-04-03T02:01:13;1.70;99.90
37204;DHT22;23098;48.054;10.636;2023-04-03T02:03:38;1.70;99.90
37204;DHT22;23098;48.054;10.636;2023-04-03T02:06:04;1.70;99.90
37204;DHT22;23098;48.054;10.636;2023-04-03T02:08:30;1.60;99.90
37204;DHT22;23098;48.054;10.636;2023-04-03T02:10:56;1.70;99.90
37204;DHT22;23098;48.054;10.636;2023-04-03T02:13:21;1.60;99.90
37204;DHT22;23098;48.054;10.636;2023-04-03T02:15:47;1.60;99.90
37204;DHT22;23098;48.054;10.636;2023-04-03T02:18:13;1.70;99.90
37204;DHT22;23098;48.054;10.636;2023-04-03T02:20:39;1.70;99.90
37204;DHT22;23098;48.054;10.636;2023-04-03T02:23:04;1.70;99.90
37204;DHT22;23098;48.054;10.636;2023-04-03T02:25:32;1.60;99.90
37204;DHT22;23098;48.054;10.636;2023-04-03T02:27:57;1.60;99.90
37204;DHT22;23098;48.054;10.636;2023-04-03T02:30:23;1.60;99.90
37204;DHT22;23098;48.054;10.636;2023-04-03T02:32:49;1.60;99.90
37204;DHT22;23098;48.054;10.636;2023-04-03T02:35:14;1.70;99.90
37204;DHT22;23098;48.054;10.636;2023-04-03T02:37:40;1.70;99.90
37204;DHT22;23098;48.054;10.636;2023-04-03T02:40:07;1.60;99.90
37204;DHT22;23098;48.054;10.636;2023-04-03T02:42:33;1.60;99.90
37204;DHT22;23098;48.054;10.636;2023-04-03T02:44:58;1.70;99.90
37204;DHT22;23098;48.054;10.636;2023-04-03T02:47:26;1.60;99.90
37204;DHT22;23098;48.054;10.636;2023-04-03T02:49:52;1.60;99.90
37204;DHT22;23098;48.054;10.636;2023-04-03T02:52:18;1.70;99.90
37204;DHT22;23098;48.054;10.636;2023-04-03T02:54:43;1.60;99.90
37204;DHT22;23098;48.054;10.636;2023-04-03T02:57:09;1.70;99.90
37204;DHT22;23098;48.054;10.636;2023-04-03T02:59:38;1.70;99.90
37204;DHT22;23098;48.054;10.636;2023-04-03T03:02:10;1.60;99.90
37204;DHT22;23098;48.054;10.636;2023-04-03T03:04:36;1.70;99.90
37204;DHT22;23098;48.054;10.636;2023-04-03T03:07:02;1.60;99.90
37204;DHT22;23098;48.054;10.636;2023-04-03T03:09:28;1.50;99.90
37204;DHT22;23098;48.054;10.636;2023-04-03T03:11:55;1.50;99.90
37204;DHT22;23098;48.054;10.636;2023-04-03T03:14:20;1.50;99.90
37204;DHT22;23098;48.054;10.636;2023-04-03T03:16:46;1.50;99.90
37204;DHT22;23098;48.054;10.636;2023-04-03T03:19:11;1.50;99.90
37204;DHT22;23098;48.054;10.636;2023-04-03T03:21:38;1.50;99.90
37204;DHT22;23098;48.054;10.636;2023-04-03T03:24:04;1.50;99.90
37204;DHT22;23098;48.054;10.636;2023-04-03T03:26:31;1.40;99.90
37204;DHT22;23098;48.054;10.636;2023-04-03T03:28:56;1.50;99.90
37204;DHT22;23098;48.054;10.636;2023-04-03T03:31:22;1.60;99.90
37204;DHT22;23098;48.054;10.636;2023-04-03T03:33:47;1.50;99.90
37204;DHT22;23098;48.054;10.636;2023-04-03T03:36:13;1.40;99.90
37204;DHT22;23098;48.054;10.636;2023-04-03T03:38:38;1.40;99.90
37204;DHT22;23098;48.054;10.636;2023-04-03T03:41:04;1.50;99.90
37204;DHT22;23098;48.054;10.636;2023-04-03T03:43:30;1.40;99.90
37204;DHT22;23098;48.054;10.636;2023-04-03T03:45:55;1.40;99.90
37204;DHT22;23098;48.054;10.636;2023-04-03T03:48:21;1.40;99.90
37204;DHT22;23098;48.054;10.636;2023-04-03T03:50:48;1.40;99.90
37204;DHT22;23098;48.054;10.636;2023-04-03T03:53:14;1.30;99.90
37204;DHT22;23098;48.054;10.636;2023-04-03T03:55:40;1.40;99.90
37204;DHT22;23098;48.054;10.636;2023-04-03T03:58:05;1.30;99.90
37204;DHT22;23098;48.054;10.636;2023-04-03T04:00:31;1.30;99.90
37204;DHT22;23098;48.054;10.636;2023-04-03T04:02:56;1.30;99.90
37204;DHT22;23098;48.054;10.636;2023-04-03T04:05:22;1.30;99.90
37204;DHT22;23098;48.054;10.636;2023-04-03T04:07:48;1.40;99.90
37204;DHT22;23098;48.054;10.636;2023-04-03T04:10:14;1.30;99.90
37204;DHT22;23098;48.054;10.636;2023-04-03T04:12:39;1.30;99.90
37204;DHT22;23098;48.054;10.636;2023-04-03T04:15:05;1.30;99.90
37204;DHT22;23098;48.054;10.636;2023-04-03T04:17:31;1.30;99.90
37204;DHT22;23098;48.054;10.636;2023-04-03T04:19:57;1.30;99.90
37204;DHT22;23098;48.054;10.636;2023-04-03T04:22:22;1.30;99.90
37204;DHT22;23098;48.054;10.636;2023-04-03T04:24:48;1.30;99.90
37204;DHT22;23098;48.054;10.636;2023-04-03T04:27:13;1.20;99.90
37204;DHT22;23098;48.054;10.636;2023-04-03T04:29:40;1.30;99.90
37204;DHT22;23098;48.054;10.636;2023-04-03T04:32:06;1.30;99.90
37204;DHT22;23098;48.054;10.636;2023-04-03T04:34:31;1.30;99.90
37204;DHT22;23098;48.054;10.636;2023-04-03T04:36:57;1.30;99.90
37204;DHT22;23098;48.054;10.636;2023-04-03T04:39:22;1.40;99.90
37204;DHT22;23098;48.054;10.636;2023-04-03T04:41:48;1.30;99.90
37204;DHT22;23098;48.054;10.636;2023-04-03T04:44:13;1.30;99.90
37204;DHT22;23098;48.054;10.636;2023-04-03T04:46:40;1.30;99.90
37204;DHT22;23098;48.054;10.636;2023-04-03T04:49:05;1.30;99.90
37204;DHT22;23098;48.054;10.636;2023-04-03T04:51:31;1.30;99.90
37204;DHT22;23098;48.054;10.636;2023-04-03T04:53:56;1.40;99.90
37204;DHT22;23098;48.054;10.636;2023-04-03T04:56:23;1.30;99.90
37204;DHT22;23098;48.054;10.636;2023-04-03T04:58:49;1.30;99.90
37204;DHT22;23098;48.054;10.636;2023-04-03T05:01:16;1.30;99.90
37204;DHT22;23098;48.054;10.636;2023-04-03T05:03:41;1.30;99.90
37204;DHT22;23098;48.054;10.636;2023-04-03T05:06:13;1.30;99.90
37204;DHT22;23098;48.054;10.636;2023-04-03T05:08:39;1.30;99.90
37204;DHT22;23098;48.054;10.636;2023-04-03T05:11:04;1.30;99.90
37204;DHT22;23098;48.054;10.636;2023-04-03T05:13:30;1.30;99.90
37204;DHT22;23098;48.054;10.636;2023-04-03T05:15:55;1.40;99.90
37204;DHT22;23098;48.054;10.636;2023-04-03T05:18:21;1.40;99.90
37204;DHT22;23098;48.054;10.636;2023-04-03T05:20:48;1.40;99.90
37204;DHT22;23098;48.054;10.636;2023-04-03T05:23:14;1.40;99.90
37204;DHT22;23098;48.054;10.636;2023-04-03T05:25:40;1.40;99.90
37204;DHT22;23098;48.054;10.636;2023-04-03T05:28:06;1.30;99.90
37204;DHT22;23098;48.054;10.636;2023-04-03T05:30:31;1.40;99.90
37204;DHT22;23098;48.054;10.636;2023-04-03T05:32:58;1.40;99.90
37204;DHT22;23098;48.054;10.636;2023-04-03T05:35:24;1.40;99.90
37204;DHT22;23098;48.054;10.636;2023-04-03T05:37:49;1.40;99.90
37204;DHT22;23098;48.054;10.636;2023-04-03T05:40:16;1.40;99.90
37204;DHT22;23098;48.054;10.636;2023-04-03T05:42:41;1.40;99.90
37204;DHT22;23098;48.054;10.636;2023-04-03T05:45:07;1.40;99.90
37204;DHT22;23098;48.054;10.636;2023-04-03T05:47:37;1.40;99.90
37204;DHT22;23098;48.054;10.636;2023-04-03T05:50:09;1.50;99.90
37204;DHT22;23098;48.054;10.636;2023-04-03T05:52:40;1.50;99.90
37204;DHT22;23098;48.054;10.636;2023-04-03T05:55:08;1.50;99.90
37204;DHT22;23098;48.054;10.636;2023-04-03T05:57:34;1.50;99.90
37204;DHT22;23098;48.054;10.636;2023-04-03T06:00:13;1.60;99.90
37204;DHT22;23098;48.054;10.636;2023-04-03T06:03:00;1.50;99.90
37204;DHT22;23098;48.054;10.636;2023-04-03T06:05:26;1.70;99.90
37204;DHT22;23098;48.054;10.636;2023-04-03T06:07:53;1.70;99.90
37204;DHT22;23098;48.054;10.636;2023-04-03T06:10:19;1.60;99.90
37204;DHT22;23098;48.054;10.636;2023-04-03T06:12:45;1.60;99.90
37204;DHT22;23098;48.054;10.636;2023-04-03T06:15:11;1.60;99.90
37204;DHT22;23098;48.054;10.636;2023-04-03T06:17:38;1.60;99.90
37204;DHT22;23098;48.054;10.636;2023-04-03T06:20:04;1.60;99.90
37204;DHT22;23098;48.054;10.636;2023-04-03T06:22:30;1.50;99.90
37204;DHT22;23098;48.054;10.636;2023-04-03T06:24:56;1.50;99.90
37204;DHT22;23098;48.054;10.636;2023-04-03T06:27:22;1.60;99.90
37204;DHT22;23098;48.054;10.636;2023-04-03T06:29:48;1.60;99.90
37204;DHT22;23098;48.054;10.636;2023-04-03T06:32:17;1.50;99.90
37204;DHT22;23098;48.054;10.636;2023-04-03T06:34:42;1.60;99.90
37204;DHT22;23098;48.054;10.636;2023-04-03T06:37:26;1.60;99.90
37204;DHT22;23098;48.054;10.636;2023-04-03T06:39:54;1.60;99.90
37204;DHT22;23098;48.054;10.636;2023-04-03T06:42:20;1.70;99.90
37204;DHT22;23098;48.054;10.636;2023-04-03T06:44:48;1.70;99.90
37204;DHT22;23098;48.054;10.636;2023-04-03T06:47:14;1.60;99.90
37204;DHT22;23098;48.054;10.636;2023-04-03T06:49:41;1.70;99.90
37204;DHT22;23098;48.054;10.636;2023-04-03T06:52:07;1.70;99.90
37204;DHT22;23098;48.054;10.636;2023-04-03T06:54:33;1.60;99.90
37204;DHT22;23098;48.054;10.636;2023-04-03T06:56:59;1.80;99.90
37204;DHT22;23098;48.054;10.636;2023-04-03T06:59:26;1.70;99.90
37204;DHT22;23098;48.054;10.636;2023-04-03T07:01:51;1.70;99.90
37204;DHT22;23098;48.054;10.636;2023-04-03T07:04:17;1.80;99.90
37204;DHT22;23098;48.054;10.636;2023-04-03T07:06:45;1.70;99.90
37204;DHT22;23098;48.054;10.636;2023-04-03T07:09:13;1.70;99.90
37204;DHT22;23098;48.054;10.636;2023-04-03T07:11:38;1.80;99.90
37204;DHT22;23098;48.054;10.636;2023-04-03T07:14:05;1.90;99.90
37204;DHT22;23098;48.054;10.636;2023-04-03T07:16:33;1.80;99.90
37204;DHT22;23098;48.054;10.636;2023-04-03T07:19:00;1.70;99.90
37204;DHT22;23098;48.054;10.636;2023-04-03T07:21:25;1.80;99.90
37204;DHT22;23098;48.054;10.636;2023-04-03T07:23:51;1.90;99.90
37204;DHT22;23098;48.054;10.636;2023-04-03T07:26:16;1.90;99.90
37204;DHT22;23098;48.054;10.636;2023-04-03T07:28:42;1.90;99.90
37204;DHT22;23098;48.054;10.636;2023-04-03T07:31:12;1.90;99.90
37204;DHT22;23098;48.054;10.636;2023-04-03T07:33:39;2.00;99.90
37204;DHT22;23098;48.054;10.636;2023-04-03T07:36:05;1.90;99.90
37204;DHT22;23098;48.054;10.636;2023-04-03T07:38:34;2.00;99.90
37204;DHT22;23098;48.054;10.636;2023-04-03T07:41:01;2.20;99.90
37204;DHT22;23098;48.054;10.636;2023-04-03T07:43:26;2.40;99.90
37204;DHT22;23098;48.054;10.636;2023-04-03T07:45:53;2.10;99.90
37204;DHT22;23098;48.054;10.636;2023-04-03T07:48:24;2.20;99.90
37204;DHT22;23098;48.054;10.636;2023-04-03T07:50:51;2.20;99.90
37204;DHT22;23098;48.054;10.636;2023-04-03T07:53:17;2.30;99.90
37204;DHT22;23098;48.054;10.636;2023-04-03T07:55:46;2.30;99.90
37204;DHT22;23098;48.054;10.636;2023-04-03T07:58:14;2.30;99.90
37204;DHT22;23098;48.054;10.636;2023-04-03T08:00:40;2.70;99.90
37204;DHT22;23098;48.054;10.636;2023-04-03T08:03:08;2.50;99.90
37204;DHT22;23098;48.054;10.636;2023-04-03T08:05:39;2.80;99.90
37204;DHT22;23098;48.054;10.636;2023-04-03T08:08:06;2.90;99.90
37204;DHT22;23098;48.054;10.636;2023-04-03T08:10:32;2.80;99.90
37204;DHT22;23098;48.054;10.636;2023-04-03T08:12:59;3.00;99.90
37204;DHT22;23098;48.054;10.636;2023-04-03T08:15:25;3.00;99.90
37204;DHT22;23098;48.054;10.636;2023-04-03T08:17:52;2.90;99.90
37204;DHT22;23098;48.054;10.636;2023-04-03T08:20:18;3.00;99.90
37204;DHT22;23098;48.054;10.636;2023-04-03T08:22:43;3.00;99.90
37204;DHT22;23098;48.054;10.636;2023-04-03T08:25:09;2.90;99.90
37204;DHT22;23098;48.054;10.636;2023-04-03T08:27:34;2.70;99.90
37204;DHT22;23098;48.054;10.636;2023-04-03T08:30:00;3.00;99.90
37204;DHT22;23098;48.054;10.636;2023-04-03T08:32:26;3.00;99.90
37204;DHT22;23098;48.054;10.636;2023-04-03T08:34:52;3.10;99.90
37204;DHT22;23098;48.054;10.636;2023-04-03T08:37:18;3.00;99.90
37204;DHT22;23098;48.054;10.636;2023-04-03T08:39:44;3.00;99.90
37204;DHT22;23098;48.054;10.636;2023-04-03T08:44:59;2.90;99.90
37204;DHT22;23098;48.054;10.636;2023-04-03T08:47:46;3.00;99.90
37204;DHT22;23098;48.054;10.636;2023-04-03T08:50:16;3.30;99.90
37204;DHT22;23098;48.054;10.636;2023-04-03T08:52:52;3.40;99.90
37204;DHT22;23098;48.054;10.636;2023-04-03T08:57:47;3.40;99.90
37204;DHT22;23098;48.054;10.636;2023-04-03T09:00:18;3.50;99.90
37204;DHT22;23098;48.054;10.636;2023-04-03T09:02:49;3.60;99.90
37204;DHT22;23098;48.054;10.636;2023-04-03T09:08:18;3.70;99.90
37204;DHT22;23098;48.054;10.636;2023-04-03T09:10:46;3.70;99.90
37204;DHT22;23098;48.054;10.636;2023-04-03T09:13:26;3.30;99.90
37204;DHT22;23098;48.054;10.636;2023-04-03T09:15:56;3.40;99.90
37204;DHT22;23098;48.054;10.636;2023-04-03T09:18:37;3.50;99.90
37204;DHT22;23098;48.054;10.636;2023-04-03T09:21:28;3.70;99.90
37204;DHT22;23098;48.054;10.636;2023-04-03T09:23:58;3.60;99.90
37204;DHT22;23098;48.054;10.636;2023-04-03T09:26:30;3.80;99.90
37204;DHT22;23098;48.054;10.636;2023-04-03T09:29:02;3.80;99.90
37204;DHT22;23098;48.054;10.636;2023-04-03T09:31:37;4.10;99.90
37204;DHT22;23098;48.054;10.636;2023-04-03T09:34:07;4.30;99.90
37204;DHT22;23098;48.054;10.636;2023-04-03T09:36:48;4.20;99.90
37204;DHT22;23098;48.054;10.636;2023-04-03T09:39:23;3.70;99.90
37204;DHT22;23098;48.054;10.636;2023-04-03T09:42:14;3.90;99.90
37204;DHT22;23098;48.054;10.636;2023-04-03T09:44:44;4.50;99.90
37204;DHT22;23098;48.054;10.636;2023-04-03T09:47:30;4.60;99.90
37204;DHT22;23098;48.054;10.636;2023-04-03T09:52:47;4.40;99.90
37204;DHT22;23098;48.054;10.636;2023-04-03T09:55:19;4.60;99.90
37204;DHT22;23098;48.054;10.636;2023-04-03T09:57:47;4.20;99.90
37204;DHT22;23098;48.054;10.636;2023-04-03T10:00:28;4.30;99.90
37204;DHT22;23098;48.054;10.636;2023-04-03T10:02:57;4.00;99.90
37204;DHT22;23098;48.054;10.636;2023-04-03T10:10:39;4.40;99.90
37204;DHT22;23098;48.054;10.636;2023-04-03T10:13:22;4.20;99.90
37204;DHT22;23098;48.054;10.636;2023-04-03T10:15:54;4.10;99.90
37204;DHT22;23098;48.054;10.636;2023-04-03T10:20:59;4.20;99.90
37204;DHT22;23098;48.054;10.636;2023-04-03T10:23:33;4.10;99.90
37204;DHT22;23098;48.054;10.636;2023-04-03T10:26:29;4.50;99.90
37204;DHT22;23098;48.054;10.636;2023-04-03T10:31:37;4.60;99.90
37204;DHT22;23098;48.054;10.636;2023-04-03T10:42:22;4.30;99.90
37204;DHT22;23098;48.054;10.636;2023-04-03T10:45:03;4.50;99.90
37204;DHT22;23098;48.054;10.636;2023-04-03T10:53:24;4.10;99.90
37204;DHT22;23098;48.054;10.636;2023-04-03T10:58:54;4.40;99.90
37204;DHT22;23098;48.054;10.636;2023-04-03T11:01:35;4.30;99.90
37204;DHT22;23098;48.054;10.636;2023-04-03T11:04:05;4.20;99.90
37204;DHT22;23098;48.054;10.636;2023-04-03T11:06:59;4.40;99.90
37204;DHT22;23098;48.054;10.636;2023-04-03T11:09:31;4.30;99.90
37204;DHT22;23098;48.054;10.636;2023-04-03T11:12:06;4.60;99.90
37204;DHT22;23098;48.054;10.636;2023-04-03T11:14:36;4.20;99.90
37204;DHT22;23098;48.054;10.636;2023-04-03T11:20:00;4.20;99.90
37204;DHT22;23098;48.054;10.636;2023-04-03T11:22:36;4.30;99.90
37204;DHT22;23098;48.054;10.636;2023-04-03T11:27:55;4.40;99.90
37204;DHT22;23098;48.054;10.636;2023-04-03T11:33:28;4.50;99.90
37204;DHT22;23098;48.054;10.636;2023-04-03T11:36:12;4.40;99.90
37204;DHT22;23098;48.054;10.636;2023-04-03T11:38:44;4.30;99.90
37204;DHT22;23098;48.054;10.636;2023-04-03T11:41:13;4.00;99.90
37204;DHT22;23098;48.054;10.636;2023-04-03T11:43:56;4.10;99.90
37204;DHT22;23098;48.054;10.636;2023-04-03T11:46:22;4.00;99.90
37204;DHT22;23098;48.054;10.636;2023-04-03T11:52:13;4.00;99.90
37204;DHT22;23098;48.054;10.636;2023-04-03T11:54:58;4.00;99.90
37204;DHT22;23098;48.054;10.636;2023-04-03T12:19:01;3.90;99.90
37204;DHT22;23098;48.054;10.636;2023-04-03T12:29:46;4.20;99.90
37204;DHT22;23098;48.054;10.636;2023-04-03T12:32:44;4.40;99.90
37204;DHT22;23098;48.054;10.636;2023-04-03T12:35:39;4.50;99.90
37204;DHT22;23098;48.054;10.636;2023-04-03T12:38:39;4.40;99.90
37204;DHT22;23098;48.054;10.636;2023-04-03T12:41:27;4.40;99.90
37204;DHT22;23098;48.054;10.636;2023-04-03T12:44:37;4.60;99.90
37204;DHT22;23098;48.054;10.636;2023-04-03T12:47:37;4.50;99.90
37204;DHT22;23098;48.054;10.636;2023-04-03T12:50:16;4.80;99.90
37204;DHT22;23098;48.054;10.636;2023-04-03T12:52:52;4.30;99.90
37204;DHT22;23098;48.054;10.636;2023-04-03T12:55:21;4.90;99.90
37204;DHT22;23098;48.054;10.636;2023-04-03T12:57:47;4.90;99.90
37204;DHT22;23098;48.054;10.636;2023-04-03T13:00:35;4.70;99.90
37204;DHT22;23098;48.054;10.636;2023-04-03T13:03:03;4.40;99.90
37204;DHT22;23098;48.054;10.636;2023-04-03T13:05:29;4.40;99.90
37204;DHT22;23098;48.054;10.636;2023-04-03T13:08:02;4.20;99.90
37204;DHT22;23098;48.054;10.636;2023-04-03T13:10:29;4.20;99.90
37204;DHT22;23098;48.054;10.636;2023-04-03T13:13:07;4.00;99.90
37204;DHT22;23098;48.054;10.636;2023-04-03T13:15:42;4.10;99.90
37204;DHT22;23098;48.054;10.636;2023-04-03T13:18:22;4.20;99.90
37204;DHT22;23098;48.054;10.636;2023-04-03T13:20:50;4.20;99.90
37204;DHT22;23098;48.054;10.636;2023-04-03T13:23:19;4.10;99.90
37204;DHT22;23098;48.054;10.636;2023-04-03T13:25:48;4.10;99.90
37204;DHT22;23098;48.054;10.636;2023-04-03T13:28:19;4.30;99.90
37204;DHT22;23098;48.054;10.636;2023-04-03T13:31:19;4.40;99.90
37204;DHT22;23098;48.054;10.636;2023-04-03T13:34:06;4.50;99.90
37204;DHT22;23098;48.054;10.636;2023-04-03T13:36:41;4.50;99.90
37204;DHT22;23098;48.054;10.636;2023-04-03T13:41:46;4.60;99.90
37204;DHT22;23098;48.054;10.636;2023-04-03T13:46:52;3.90;99.90
37204;DHT22;23098;48.054;10.636;2023-04-03T13:51:51;3.80;99.90
37204;DHT22;23098;48.054;10.636;2023-04-03T13:54:38;4.10;99.90
37204;DHT22;23098;48.054;10.636;2023-04-03T13:57:15;4.20;99.90
37204;DHT22;23098;48.054;10.636;2023-04-03T13:59:41;4.20;99.90
37204;DHT22;23098;48.054;10.636;2023-04-03T14:07:02;4.60;99.90
37204;DHT22;23098;48.054;10.636;2023-04-03T14:09:28;5.10;99.90
37204;DHT22;23098;48.054;10.636;2023-04-03T14:11:57;4.90;99.90
37204;DHT22;23098;48.054;10.636;2023-04-03T14:14:27;4.60;99.90
37204;DHT22;23098;48.054;10.636;2023-04-03T14:16:57;4.60;99.90
37204;DHT22;23098;48.054;10.636;2023-04-03T14:19:31;4.90;99.90
37204;DHT22;23098;48.054;10.636;2023-04-03T14:21:58;5.30;99.90
37204;DHT22;23098;48.054;10.636;2023-04-03T14:24:24;5.50;99.90
37204;DHT22;23098;48.054;10.636;2023-04-03T14:26:52;5.20;99.90
37204;DHT22;23098;48.054;10.636;2023-04-03T14:29:18;5.10;99.90
37204;DHT22;23098;48.054;10.636;2023-04-03T14:31:45;4.80;99.90
37204;DHT22;23098;48.054;10.636;2023-04-03T14:34:13;4.70;99.90
37204;DHT22;23098;48.054;10.636;2023-04-03T14:36:39;4.90;99.90
37204;DHT22;23098;48.054;10.636;2023-04-03T14:39:07;4.80;99.90
37204;DHT22;23098;48.054;10.636;2023-04-03T14:41:32;4.90;99.40
37204;DHT22;23098;48.054;10.636;2023-04-03T14:43:58;4.70;99.20
37204;DHT22;23098;48.054;10.636;2023-04-03T14:46:31;4.70;99.90
37204;DHT22;23098;48.054;10.636;2023-04-03T14:48:57;5.00;99.50
37204;DHT22;23098;48.054;10.636;2023-04-03T14:51:22;5.70;98.60
37204;DHT22;23098;48.054;10.636;2023-04-03T14:53:48;6.10;98.30
37204;DHT22;23098;48.054;10.636;2023-04-03T14:56:18;6.10;97.80
37204;DHT22;23098;48.054;10.636;2023-04-03T14:58:47;6.40;97.00
37204;DHT22;23098;48.054;10.636;2023-04-03T15:01:15;7.10;97.10
37204;DHT22;23098;48.054;10.636;2023-04-03T15:03:41;6.40;97.20
37204;DHT22;23098;48.054;10.636;2023-04-03T15:06:10;6.10;97.10
37204;DHT22;23098;48.054;10.636;2023-04-03T15:08:36;5.40;97.50
37204;DHT22;23098;48.054;10.636;2023-04-03T15:11:02;5.20;97.90
37204;DHT22;23098;48.054;10.636;2023-04-03T15:13:28;4.60;97.90
37204;DHT22;23098;48.054;10.636;2023-04-03T15:15:53;4.40;98.30
37204;DHT22;23098;48.054;10.636;2023-04-03T15:18:37;4.40;98.00
37204;DHT22;23098;48.054;10.636;2023-04-03T15:21:05;4.40;98.70
37204;DHT22;23098;48.054;10.636;2023-04-03T15:23:33;4.20;98.20
37204;DHT22;23098;48.054;10.636;2023-04-03T15:26:16;4.40;98.50
37204;DHT22;23098;48.054;10.636;2023-04-03T15:28:43;4.40;98.50
37204;DHT22;23098;48.054;10.636;2023-04-03T15:31:09;4.50;97.90
37204;DHT22;23098;48.054;10.636;2023-04-03T15:33:35;4.50;97.20
37204;DHT22;23098;48.054;10.636;2023-04-03T15:36:01;4.50;97.30
37204;DHT22;23098;48.054;10.636;2023-04-03T15:38:28;4.50;97.50
37204;DHT22;23098;48.054;10.636;2023-04-03T15:40:54;4.40;96.70
37204;DHT22;23098;48.054;10.636;2023-04-03T15:43:21;4.60;97.00
37204;DHT22;23098;48.054;10.636;2023-04-03T15:45:57;4.70;97.40
37204;DHT22;23098;48.054;10.636;2023-04-03T15:48:26;4.70;96.60
37204;DHT22;23098;48.054;10.636;2023-04-03T15:50:53;5.00;97.20
37204;DHT22;23098;48.054;10.636;2023-04-03T15:53:20;4.90;96.60
37204;DHT22;23098;48.054;10.636;2023-04-03T15:55:47;5.10;96.30
37204;DHT22;23098;48.054;10.636;2023-04-03T15:58:12;4.90;95.20
37204;DHT22;23098;48.054;10.636;2023-04-03T16:00:38;5.10;96.10
37204;DHT22;23098;48.054;10.636;2023-04-03T16:03:16;5.20;94.50
37204;DHT22;23098;48.054;10.636;2023-04-03T16:05:43;4.90;93.80
37204;DHT22;23098;48.054;10.636;2023-04-03T16:08:08;5.10;94.10
37204;DHT22;23098;48.054;10.636;2023-04-03T16:10:35;5.10;94.50
37204;DHT22;23098;48.054;10.636;2023-04-03T16:13:01;5.10;93.80
37204;DHT22;23098;48.054;10.636;2023-04-03T16:15:26;5.10;93.70
37204;DHT22;23098;48.054;10.636;2023-04-03T16:17:53;5.20;94.20
37204;DHT22;23098;48.054;10.636;2023-04-03T16:20:19;5.20;94.00
37204;DHT22;23098;48.054;10.636;2023-04-03T16:22:47;5.00;94.00
37204;DHT22;23098;48.054;10.636;2023-04-03T16:25:13;5.20;94.30
37204;DHT22;23098;48.054;10.636;2023-04-03T16:27:39;5.30;94.40
37204;DHT22;23098;48.054;10.636;2023-04-03T16:30:06;5.30;94.40
37204;DHT22;23098;48.054;10.636;2023-04-03T16:32:32;5.50;94.80
37204;DHT22;23098;48.054;10.636;2023-04-03T16:34:58;5.30;93.50
37204;DHT22;23098;48.054;10.636;2023-04-03T16:37:24;5.20;94.40
37204;DHT22;23098;48.054;10.636;2023-04-03T16:53:01;4.40;93.70
37204;DHT22;23098;48.054;10.636;2023-04-03T16:55:33;4.50;94.20
37204;DHT22;23098;48.054;10.636;2023-04-03T16:58:04;4.30;94.10
37204;DHT22;23098;48.054;10.636;2023-04-03T18:07:39;2.60;96.90
37204;DHT22;23098;48.054;10.636;2023-04-03T18:10:06;2.60;96.60
37204;DHT22;23098;48.054;10.636;2023-04-03T18:12:34;2.50;96.80
37204;DHT22;23098;48.054;10.636;2023-04-03T18:15:00;2.50;96.70
37204;DHT22;23098;48.054;10.636;2023-04-03T18:17:27;2.40;96.80
37204;DHT22;23098;48.054;10.636;2023-04-03T18:19:52;2.40;96.80
37204;DHT22;23098;48.054;10.636;2023-04-03T18:22:20;2.30;96.60
37204;DHT22;23098;48.054;10.636;2023-04-03T18:24:48;2.30;96.50
37204;DHT22;23098;48.054;10.636;2023-04-03T18:27:17;2.30;96.30
37204;DHT22;23098;48.054;10.636;2023-04-03T18:30:24;2.20;96.30
37204;DHT22;23098;48.054;10.636;2023-04-03T18:32:59;2.20;96.20
37204;DHT22;23098;48.054;10.636;2023-04-03T19:09:04;1.70;96.30
37204;DHT22;23098;48.054;10.636;2023-04-03T19:11:30;1.70;96.50
37204;DHT22;23098;48.054;10.636;2023-04-03T19:13:56;1.80;96.40